createdAt,value
2022-11-28T00:00:19.874Z,12.80
2022-11-28T00:01:19.858Z,8.80
2022-11-28T00:02:19.950Z,10.50
2022-11-28T00:03:19.862Z,10.00
2022-11-28T00:04:19.761Z,12.00
2022-11-28T00:05:19.774Z,8.90
2022-11-28T00:06:19.764Z,7.50
2022-11-28T00:07:19.846Z,9.40
2022-11-28T00:08:19.738Z,8.90
2022-11-28T00:09:19.735Z,8.10
2022-11-28T00:10:19.705Z,7.40
2022-11-28T00:11:19.719Z,9.00
2022-11-28T00:12:20.272Z,8.70
2022-11-28T00:13:19.702Z,8.70
2022-11-28T00:14:19.669Z,8.30
2022-11-28T00:15:19.668Z,7.00
2022-11-28T00:16:19.952Z,7.80
2022-11-28T00:17:19.695Z,9.90
2022-11-28T00:18:19.614Z,9.30
2022-11-28T00:19:19.663Z,9.30
2022-11-28T00:20:19.628Z,10.00
2022-11-28T00:21:19.603Z,9.60
2022-11-28T00:22:19.566Z,8.70
2022-11-28T00:23:19.573Z,9.50
2022-11-28T00:24:19.609Z,11.40
2022-11-28T00:25:19.567Z,9.00
2022-11-28T00:26:19.569Z,9.20
2022-11-28T00:27:19.581Z,8.20
2022-11-28T00:28:19.966Z,9.10
2022-11-28T00:29:19.513Z,10.00
2022-11-28T00:30:19.509Z,10.80
2022-11-28T00:31:19.553Z,10.30
2022-11-28T00:32:19.462Z,8.70
2022-11-28T00:33:19.482Z,9.40
2022-11-28T00:34:19.443Z,10.00
2022-11-28T00:35:19.475Z,10.10
2022-11-28T00:36:19.442Z,8.90
2022-11-28T00:37:19.458Z,8.10
2022-11-28T00:38:19.421Z,8.50
2022-11-28T00:39:19.414Z,9.50
2022-11-28T00:40:19.432Z,9.10
2022-11-28T00:41:19.383Z,8.70
2022-11-28T00:42:19.369Z,10.70
2022-11-28T00:43:19.374Z,8.30
2022-11-28T00:44:19.665Z,8.20
2022-11-28T00:45:19.349Z,9.00
2022-11-28T00:46:19.365Z,10.30
2022-11-28T00:47:19.324Z,8.50
2022-11-28T00:48:19.294Z,10.90
2022-11-28T00:49:19.311Z,9.80
2022-11-28T00:50:19.300Z,8.60
2022-11-28T00:51:19.284Z,8.90
2022-11-28T00:52:19.308Z,10.50
2022-11-28T00:53:19.250Z,8.70
2022-11-28T00:54:19.253Z,11.40
2022-11-28T00:55:19.250Z,9.00
2022-11-28T00:56:19.241Z,8.80
2022-11-28T00:57:19.250Z,8.50
2022-11-28T00:58:19.242Z,10.10
2022-11-28T00:59:19.210Z,8.90
2022-11-28T01:00:19.200Z,11.00
2022-11-28T01:01:19.349Z,8.60
2022-11-28T01:02:19.233Z,11.10
2022-11-28T01:03:19.149Z,8.60
2022-11-28T01:04:19.151Z,10.00
2022-11-28T01:05:19.146Z,9.50
2022-11-28T01:06:19.099Z,9.40
2022-11-28T01:07:19.231Z,9.40
2022-11-28T01:08:19.087Z,10.30
2022-11-28T01:09:19.088Z,11.30
2022-11-28T01:10:19.049Z,9.30
2022-11-28T01:11:19.075Z,9.40
2022-11-28T01:12:19.142Z,9.80
2022-11-28T01:13:19.086Z,11.60
2022-11-28T01:14:19.011Z,9.30
2022-11-28T01:15:19.033Z,10.10
2022-11-28T01:16:19.033Z,10.00
2022-11-28T01:17:19.198Z,9.90
2022-11-28T01:18:19.119Z,9.30
2022-11-28T01:19:19.128Z,10.30
2022-11-28T01:20:18.941Z,9.50
2022-11-28T01:21:18.948Z,10.50
2022-11-28T01:22:18.930Z,9.60
2022-11-28T01:23:19.222Z,10.40
2022-11-28T01:24:18.934Z,9.70
2022-11-28T01:25:18.929Z,10.20
2022-11-28T01:26:19.159Z,9.90
2022-11-28T01:27:19.183Z,11.00
2022-11-28T01:28:19.180Z,9.00
2022-11-28T01:29:18.864Z,8.40
2022-11-28T01:30:18.887Z,9.80
2022-11-28T01:31:18.885Z,11.20
2022-11-28T01:32:18.851Z,9.10
2022-11-28T01:33:18.810Z,11.70
2022-11-28T01:34:19.001Z,11.60
2022-11-28T01:35:18.923Z,10.70
2022-11-28T01:36:18.897Z,9.20
2022-11-28T01:37:19.117Z,9.90
2022-11-28T01:38:19.120Z,9.80
2022-11-28T01:39:18.766Z,11.30
2022-11-28T01:40:18.736Z,10.80
2022-11-28T01:41:18.736Z,11.20
2022-11-28T01:42:18.746Z,10.00
2022-11-28T01:43:18.726Z,10.30
2022-11-28T01:44:18.711Z,9.70
2022-11-28T01:45:18.776Z,8.80
2022-11-28T01:46:18.704Z,9.70
2022-11-28T01:47:18.788Z,8.60
2022-11-28T01:48:18.786Z,11.60
2022-11-28T01:49:18.804Z,11.60
2022-11-28T01:50:18.624Z,10.90
2022-11-28T01:51:18.625Z,8.90
2022-11-28T01:52:18.621Z,11.30
2022-11-28T01:53:18.605Z,11.20
2022-11-28T01:54:18.703Z,10.70
2022-11-28T01:55:18.579Z,10.90
2022-11-28T01:56:18.836Z,11.20
2022-11-28T01:57:18.557Z,10.60
2022-11-28T01:58:18.770Z,10.70
2022-11-28T01:59:19.006Z,11.30
2022-11-28T02:00:18.564Z,10.80
2022-11-28T02:01:18.657Z,10.80
2022-11-28T02:02:18.796Z,9.70
2022-11-28T02:03:18.544Z,10.00
2022-11-28T02:04:18.604Z,9.30
2022-11-28T02:05:18.483Z,8.80
2022-11-28T02:06:18.521Z,11.40
2022-11-28T02:07:19.099Z,10.60
2022-11-28T02:08:18.420Z,12.00
2022-11-28T02:09:18.422Z,10.20
2022-11-28T02:10:18.419Z,10.40
2022-11-28T02:11:18.410Z,9.80
2022-11-28T02:12:18.634Z,10.00
2022-11-28T02:13:18.435Z,10.10
2022-11-28T02:14:18.345Z,11.50
2022-11-28T02:15:18.355Z,9.90
2022-11-28T02:16:18.388Z,10.50
2022-11-28T02:17:18.314Z,10.10
2022-11-28T02:18:18.886Z,9.70
2022-11-28T02:19:18.304Z,10.00
2022-11-28T02:20:19.003Z,10.80
2022-11-28T02:21:18.274Z,10.10
2022-11-28T02:22:18.291Z,10.50
2022-11-28T02:23:18.269Z,9.90
2022-11-28T02:24:18.364Z,11.70
2022-11-28T02:25:18.237Z,9.20
2022-11-28T02:26:18.243Z,11.20
2022-11-28T02:27:18.342Z,9.60
2022-11-28T02:28:18.352Z,10.40
2022-11-28T02:29:18.182Z,10.30
2022-11-28T02:30:18.225Z,9.90
2022-11-28T02:31:18.265Z,9.70
2022-11-28T02:32:18.173Z,10.50
2022-11-28T02:33:18.122Z,9.60
2022-11-28T02:34:18.205Z,9.70
2022-11-28T02:35:18.100Z,10.00
2022-11-28T02:36:18.124Z,11.20
2022-11-28T02:37:18.192Z,11.80
2022-11-28T02:38:18.105Z,9.50
2022-11-28T02:39:18.070Z,11.60
2022-11-28T02:40:18.224Z,10.10
2022-11-28T02:41:18.221Z,10.40
2022-11-28T02:42:18.072Z,9.60
2022-11-28T02:43:18.063Z,11.40
2022-11-28T02:44:18.046Z,9.60
2022-11-28T02:45:18.013Z,10.70
2022-11-28T02:46:18.048Z,10.00
2022-11-28T02:47:17.982Z,10.70
2022-11-28T02:48:18.054Z,11.30
2022-11-28T02:49:17.980Z,10.70
2022-11-28T02:50:17.981Z,11.20
2022-11-28T02:51:17.954Z,11.30
2022-11-28T02:52:17.941Z,9.90
2022-11-28T02:53:17.907Z,11.90
2022-11-28T02:54:17.941Z,9.90
2022-11-28T02:55:17.898Z,10.80
2022-11-28T02:56:17.939Z,10.70
2022-11-28T02:57:17.864Z,12.10
2022-11-28T02:58:17.890Z,9.10
2022-11-28T02:59:18.454Z,11.20
2022-11-28T03:00:18.099Z,10.30
2022-11-28T03:01:17.939Z,11.80
2022-11-28T03:02:17.944Z,10.30
2022-11-28T03:03:17.838Z,9.10
2022-11-28T03:04:18.119Z,10.80
2022-11-28T03:05:18.031Z,10.50
2022-11-28T03:06:17.809Z,11.60
2022-11-28T03:07:17.963Z,10.40
2022-11-28T03:08:17.809Z,10.10
2022-11-28T03:09:17.815Z,10.50
2022-11-28T03:10:17.820Z,12.20
2022-11-28T03:11:17.729Z,10.70
2022-11-28T03:12:17.833Z,11.90
2022-11-28T03:13:17.688Z,11.90
2022-11-28T03:14:18.070Z,12.00
2022-11-28T03:15:17.680Z,11.50
2022-11-28T03:16:17.737Z,13.00
2022-11-28T03:17:17.644Z,11.10
2022-11-28T03:18:17.687Z,10.30
2022-11-28T03:19:17.638Z,10.10
2022-11-28T03:20:17.779Z,11.70
2022-11-28T03:21:18.710Z,12.10
2022-11-28T03:22:17.628Z,10.80
2022-11-28T03:23:17.577Z,11.10
2022-11-28T03:24:17.598Z,12.10
2022-11-28T03:25:17.558Z,12.40
2022-11-28T03:26:17.575Z,12.10
2022-11-28T03:27:17.537Z,11.20
2022-11-28T03:28:17.574Z,11.90
2022-11-28T03:29:17.528Z,11.70
2022-11-28T03:30:17.543Z,11.70
2022-11-28T03:31:18.190Z,11.00
2022-11-28T03:32:17.509Z,12.20
2022-11-28T03:33:17.469Z,11.30
2022-11-28T03:34:17.476Z,11.20
2022-11-28T03:35:17.461Z,11.10
2022-11-28T03:36:17.746Z,11.80
2022-11-28T03:37:17.504Z,13.10
2022-11-28T03:38:17.437Z,11.20
2022-11-28T03:39:17.517Z,12.60
2022-11-28T03:40:17.607Z,12.90
2022-11-28T03:41:17.626Z,11.20
2022-11-28T03:42:17.528Z,13.40
2022-11-28T03:43:17.376Z,12.70
2022-11-28T03:44:17.365Z,11.00
2022-11-28T03:45:17.345Z,11.60
2022-11-28T03:46:17.413Z,12.00
2022-11-28T03:47:17.347Z,12.80
2022-11-28T03:48:17.465Z,11.00
2022-11-28T03:49:17.305Z,11.70
2022-11-28T03:50:17.309Z,13.90
2022-11-28T03:51:17.266Z,12.70
2022-11-28T03:52:17.299Z,14.00
2022-11-28T03:53:17.285Z,13.80
2022-11-28T03:54:17.337Z,11.90
2022-11-28T03:55:17.301Z,12.00
2022-11-28T03:56:17.325Z,11.90
2022-11-28T03:57:17.205Z,11.90
2022-11-28T03:58:17.214Z,12.00
2022-11-28T03:59:17.209Z,11.30
2022-11-28T04:00:17.234Z,13.60
2022-11-28T04:01:17.246Z,11.80
2022-11-28T04:02:17.266Z,13.50
2022-11-28T04:03:17.197Z,12.70
2022-11-28T04:04:17.265Z,12.50
2022-11-28T04:05:17.135Z,13.50
2022-11-28T04:06:17.154Z,12.30
2022-11-28T04:07:17.170Z,14.70
2022-11-28T04:08:17.107Z,13.60
2022-11-28T04:09:17.065Z,12.90
2022-11-28T04:10:17.092Z,13.60
2022-11-28T04:11:17.056Z,14.90
2022-11-28T04:12:17.072Z,14.80
2022-11-28T04:13:17.056Z,13.00
2022-11-28T04:14:17.053Z,12.90
2022-11-28T04:15:17.005Z,14.00
2022-11-28T04:16:17.051Z,14.30
2022-11-28T04:17:16.985Z,14.30
2022-11-28T04:18:17.002Z,15.70
2022-11-28T04:19:16.963Z,13.60
2022-11-28T04:20:16.973Z,11.60
2022-11-28T04:21:16.973Z,12.40
2022-11-28T04:22:16.980Z,12.20
2022-11-28T04:23:16.963Z,12.90
2022-11-28T04:24:16.943Z,13.70
2022-11-28T04:25:16.916Z,14.40
2022-11-28T04:26:16.922Z,12.90
2022-11-28T04:27:16.929Z,14.00
2022-11-28T04:28:16.904Z,12.20
2022-11-28T04:29:16.873Z,14.10
2022-11-28T04:30:16.884Z,13.70
2022-11-28T04:31:16.904Z,13.20
2022-11-28T04:32:16.855Z,13.90
2022-11-28T04:33:16.812Z,12.60
2022-11-28T04:34:16.828Z,13.50
2022-11-28T04:35:16.806Z,14.10
2022-11-28T04:36:16.806Z,13.30
2022-11-28T04:37:16.779Z,11.50
2022-11-28T04:38:16.791Z,13.10
2022-11-28T04:39:16.749Z,12.80
2022-11-28T04:40:16.814Z,12.70
2022-11-28T04:41:16.722Z,12.70
2022-11-28T04:42:16.749Z,11.60
2022-11-28T04:43:16.811Z,12.40
2022-11-28T04:44:16.721Z,11.60
2022-11-28T04:45:16.684Z,13.20
2022-11-28T04:46:16.741Z,13.90
2022-11-28T04:47:16.650Z,12.70
2022-11-28T04:48:16.787Z,14.20
2022-11-28T04:49:16.631Z,14.20
2022-11-28T04:50:16.650Z,11.40
2022-11-28T04:51:16.618Z,12.70
2022-11-28T04:52:16.621Z,15.70
2022-11-28T04:53:16.629Z,12.10
2022-11-28T04:54:16.660Z,15.70
2022-11-28T04:55:16.774Z,11.80
2022-11-28T04:56:16.599Z,13.10
2022-11-28T04:57:16.550Z,11.50
2022-11-28T04:58:16.560Z,13.20
2022-11-28T04:59:16.547Z,12.60
2022-11-28T05:00:16.595Z,12.90
2022-11-28T05:01:16.553Z,11.80
2022-11-28T05:02:16.622Z,11.60
2022-11-28T05:03:16.489Z,12.30
2022-11-28T05:04:16.563Z,10.90
2022-11-28T05:05:16.466Z,11.80
2022-11-28T05:06:16.571Z,12.80
2022-11-28T05:07:16.499Z,12.80
2022-11-28T05:08:16.480Z,12.60
2022-11-28T05:09:16.419Z,13.20
2022-11-28T05:10:16.440Z,13.60
2022-11-28T05:11:16.400Z,12.10
2022-11-28T05:12:16.419Z,13.50
2022-11-28T05:13:16.380Z,12.80
2022-11-28T05:14:16.398Z,12.10
2022-11-28T05:15:16.348Z,10.90
2022-11-28T05:16:16.490Z,11.80
2022-11-28T05:17:16.344Z,12.20
2022-11-28T05:18:16.394Z,12.80
2022-11-28T05:19:16.338Z,12.80
2022-11-28T05:20:16.318Z,13.30
2022-11-28T05:21:16.334Z,13.50
2022-11-28T05:22:16.318Z,11.60
2022-11-28T05:23:16.289Z,12.20
2022-11-28T05:24:16.379Z,12.30
2022-11-28T05:25:16.257Z,12.90
2022-11-28T05:26:16.257Z,11.70
2022-11-28T05:27:16.232Z,13.30
2022-11-28T05:28:16.518Z,13.30
2022-11-28T05:29:16.246Z,12.10
2022-11-28T05:30:16.220Z,13.70
2022-11-28T05:31:16.320Z,13.00
2022-11-28T05:32:16.198Z,12.20
2022-11-28T05:33:16.164Z,12.50
2022-11-28T05:34:16.188Z,12.70
2022-11-28T05:35:16.151Z,11.90
2022-11-28T05:36:16.160Z,15.00
2022-11-28T05:37:16.177Z,12.60
2022-11-28T05:38:16.125Z,11.40
2022-11-28T05:39:16.116Z,12.50
2022-11-28T05:40:16.133Z,14.10
2022-11-28T05:41:16.067Z,13.40
2022-11-28T05:42:16.117Z,12.00
2022-11-28T05:43:16.127Z,11.90
2022-11-28T05:44:16.166Z,12.00
2022-11-28T05:45:16.035Z,12.70
2022-11-28T05:46:16.201Z,13.90
2022-11-28T05:47:16.005Z,11.20
2022-11-28T05:48:16.083Z,12.40
2022-11-28T05:49:16.037Z,13.10
2022-11-28T05:50:15.996Z,11.90
2022-11-28T05:51:15.954Z,11.30
2022-11-28T05:52:15.973Z,12.30
2022-11-28T05:53:15.955Z,13.20
2022-11-28T05:54:15.960Z,11.10
2022-11-28T05:55:15.929Z,13.20
2022-11-28T05:56:15.963Z,13.20
2022-11-28T05:57:16.056Z,13.50
2022-11-28T05:58:15.908Z,13.10
2022-11-28T05:59:16.233Z,12.90
2022-11-28T06:00:15.910Z,13.60
2022-11-28T06:01:15.880Z,13.40
2022-11-28T06:02:15.931Z,13.80
2022-11-28T06:03:15.864Z,12.60
2022-11-28T06:04:15.887Z,12.40
2022-11-28T06:05:41.114Z,12.10
2022-11-28T06:06:16.845Z,14.90
2022-11-28T06:07:15.811Z,15.30
2022-11-28T06:08:15.804Z,13.60
2022-11-28T06:09:15.764Z,13.20
2022-11-28T06:10:15.853Z,13.90
2022-11-28T06:11:15.743Z,14.30
2022-11-28T06:12:15.902Z,12.50
2022-11-28T06:13:15.724Z,12.40
2022-11-28T06:14:15.835Z,13.80
2022-11-28T06:15:16.223Z,13.30
2022-11-28T06:16:15.797Z,13.50
2022-11-28T06:17:15.924Z,12.40
2022-11-28T06:18:16.260Z,13.80
2022-11-28T06:19:15.662Z,11.90
2022-11-28T06:20:15.672Z,11.80
2022-11-28T06:21:15.643Z,11.70
2022-11-28T06:22:15.662Z,11.40
2022-11-28T06:23:15.767Z,13.10
2022-11-28T06:24:15.783Z,13.90
2022-11-28T06:25:15.884Z,13.00
2022-11-28T06:26:15.641Z,13.40
2022-11-28T06:27:15.575Z,14.30
2022-11-28T06:28:15.593Z,14.30
2022-11-28T06:29:15.555Z,12.90
2022-11-28T06:30:15.562Z,13.20
2022-11-28T06:31:15.615Z,13.80
2022-11-28T06:32:18.923Z,12.80
2022-11-28T06:33:16.521Z,15.60
2022-11-28T06:34:15.492Z,14.10
2022-11-28T06:35:15.529Z,13.90
2022-11-28T06:36:15.481Z,13.50
2022-11-28T06:37:15.491Z,13.00
2022-11-28T06:38:15.600Z,14.60
2022-11-28T06:39:15.522Z,13.20
2022-11-28T06:40:15.470Z,13.70
2022-11-28T06:41:15.450Z,12.80
2022-11-28T06:42:15.422Z,14.00
2022-11-28T06:43:15.441Z,16.00
2022-11-28T06:44:15.410Z,13.40
2022-11-28T06:45:15.511Z,14.80
2022-11-28T06:46:16.501Z,16.50
2022-11-28T06:47:15.381Z,15.50
2022-11-28T06:48:15.370Z,14.90
2022-11-28T06:49:15.380Z,13.00
2022-11-28T06:50:15.335Z,15.40
2022-11-28T06:51:15.377Z,14.50
2022-11-28T06:52:15.292Z,14.80
2022-11-28T06:53:15.308Z,13.30
2022-11-28T06:54:15.305Z,14.80
2022-11-28T06:55:15.304Z,13.30
2022-11-28T06:56:15.251Z,17.40
2022-11-28T06:57:15.268Z,14.30
2022-11-28T06:58:15.230Z,13.60
2022-11-28T06:59:15.239Z,13.40
2022-11-28T07:00:15.238Z,14.40
2022-11-28T07:01:15.375Z,16.10
2022-11-28T07:02:15.274Z,14.00
2022-11-28T07:03:15.198Z,13.90
2022-11-28T07:04:15.167Z,14.30
2022-11-28T07:05:15.198Z,12.60
2022-11-28T07:06:15.190Z,16.70
2022-11-28T07:07:16.749Z,13.20
2022-11-28T07:08:15.158Z,14.10
2022-11-28T07:09:15.157Z,14.40
2022-11-28T07:10:15.107Z,13.20
2022-11-28T07:11:15.126Z,13.50
2022-11-28T07:12:15.087Z,13.40
2022-11-28T07:13:15.237Z,14.30
2022-11-28T07:14:15.069Z,13.40
2022-11-28T07:15:15.101Z,15.20
2022-11-28T07:16:15.101Z,13.20
2022-11-28T07:17:15.055Z,13.20
2022-11-28T07:18:15.068Z,14.30
2022-11-28T07:19:15.037Z,14.40
2022-11-28T07:20:15.016Z,15.20
2022-11-28T07:21:15.021Z,17.60
2022-11-28T07:22:14.966Z,13.90
2022-11-28T07:23:14.986Z,12.90
2022-11-28T07:24:14.957Z,17.10
2022-11-28T07:25:14.997Z,15.30
2022-11-28T07:26:15.095Z,13.90
2022-11-28T07:27:14.949Z,13.30
2022-11-28T07:28:15.709Z,13.30
2022-11-28T07:29:15.028Z,13.30
2022-11-28T07:30:14.895Z,12.60
2022-11-28T07:31:14.948Z,13.30
2022-11-28T07:32:14.950Z,14.60
2022-11-28T07:33:14.890Z,13.00
2022-11-28T07:34:14.866Z,14.30
2022-11-28T07:35:14.887Z,13.10
2022-11-28T07:36:14.827Z,12.40
2022-11-28T07:37:14.862Z,14.50
2022-11-28T07:38:14.827Z,13.60
2022-11-28T07:39:14.814Z,12.90
2022-11-28T07:40:14.788Z,13.70
2022-11-28T07:41:14.814Z,13.60
2022-11-28T07:42:14.758Z,16.50
2022-11-28T07:43:14.786Z,15.60
2022-11-28T07:44:14.748Z,19.10
2022-11-28T07:45:15.118Z,14.30
2022-11-28T07:46:14.865Z,14.00
2022-11-28T07:47:15.226Z,16.00
2022-11-28T07:48:14.694Z,14.80
2022-11-28T07:49:14.745Z,16.20
2022-11-28T07:50:14.674Z,15.50
2022-11-28T07:51:14.848Z,15.60
2022-11-28T07:52:14.654Z,16.00
2022-11-28T07:53:14.665Z,14.60
2022-11-28T07:54:14.623Z,14.90
2022-11-28T07:55:14.648Z,18.00
2022-11-28T07:56:14.705Z,15.30
2022-11-28T07:57:14.682Z,18.70
2022-11-28T07:58:14.608Z,16.50
2022-11-28T07:59:14.595Z,16.90
2022-11-28T08:00:14.579Z,16.40
2022-11-28T08:01:14.613Z,16.00
2022-11-28T08:02:14.650Z,16.10
2022-11-28T08:03:14.576Z,16.60
2022-11-28T08:04:14.557Z,14.10
2022-11-28T08:05:14.601Z,15.30
2022-11-28T08:06:15.417Z,15.00
2022-11-28T08:07:14.625Z,12.90
2022-11-28T08:08:14.568Z,14.30
2022-11-28T08:09:14.487Z,16.70
2022-11-28T08:10:14.490Z,15.50
2022-11-28T08:11:14.493Z,14.50
2022-11-28T08:12:14.471Z,13.00
2022-11-28T08:13:14.480Z,13.90
2022-11-28T08:14:14.418Z,15.50
2022-11-28T08:15:14.457Z,15.90
2022-11-28T08:16:14.438Z,15.30
2022-11-28T08:17:14.394Z,15.20
2022-11-28T08:18:14.371Z,16.40
2022-11-28T08:19:14.381Z,15.90
2022-11-28T08:20:14.343Z,16.10
2022-11-28T08:21:14.351Z,15.80
2022-11-28T08:22:14.326Z,15.20
2022-11-28T08:23:14.363Z,14.70
2022-11-28T08:24:14.328Z,14.00
2022-11-28T08:25:14.363Z,13.40
2022-11-28T08:26:14.282Z,16.10
2022-11-28T08:27:14.475Z,12.90
2022-11-28T08:28:14.485Z,13.10
2022-11-28T08:29:14.524Z,12.80
2022-11-28T08:30:14.261Z,12.70
2022-11-28T08:31:14.279Z,13.90
2022-11-28T08:32:14.311Z,15.10
2022-11-28T08:33:14.280Z,13.80
2022-11-28T08:34:14.193Z,14.30
2022-11-28T08:35:14.248Z,13.70
2022-11-28T08:36:14.202Z,13.40
2022-11-28T08:37:14.233Z,14.50
2022-11-28T08:38:14.161Z,15.70
2022-11-28T08:39:24.135Z,13.40
2022-11-28T08:40:15.140Z,14.80
2022-11-28T08:41:14.148Z,15.30
2022-11-28T08:42:14.131Z,14.10
2022-11-28T08:43:14.145Z,13.90
2022-11-28T08:44:14.091Z,13.00
2022-11-28T08:45:14.090Z,12.80
2022-11-28T08:46:14.141Z,15.20
2022-11-28T08:47:14.330Z,13.50
2022-11-28T08:48:14.320Z,14.90
2022-11-28T08:49:14.351Z,13.00
2022-11-28T08:50:14.023Z,13.60
2022-11-28T08:51:14.344Z,13.90
2022-11-28T08:52:14.148Z,14.80
2022-11-28T08:53:18.556Z,12.70
2022-11-28T08:54:13.992Z,15.10
2022-11-28T08:55:14.005Z,14.80
2022-11-28T08:56:14.020Z,12.90
2022-11-28T08:57:14.039Z,11.80
2022-11-28T08:58:13.928Z,15.40
2022-11-28T08:59:14.029Z,13.10
2022-11-28T09:00:13.912Z,13.90
2022-11-28T09:01:13.976Z,13.70
2022-11-28T09:02:13.911Z,13.00
2022-11-28T09:03:13.929Z,12.60
2022-11-28T09:04:13.904Z,13.90
2022-11-28T09:05:13.883Z,13.70
2022-11-28T09:06:13.861Z,12.80
2022-11-28T09:07:13.888Z,12.10
2022-11-28T09:08:13.870Z,12.90
2022-11-28T09:09:14.057Z,12.90
2022-11-28T09:10:13.797Z,11.70
2022-11-28T09:11:13.812Z,12.60
2022-11-28T09:12:13.788Z,13.50
2022-11-28T09:13:14.087Z,13.50
2022-11-28T09:14:13.761Z,11.20
2022-11-28T09:15:13.779Z,11.60
2022-11-28T09:16:13.734Z,12.30
2022-11-28T09:17:13.791Z,12.20
2022-11-28T09:18:13.726Z,13.80
2022-11-28T09:19:13.727Z,11.50
2022-11-28T09:20:13.694Z,11.70
2022-11-28T09:21:13.726Z,12.90
2022-11-28T09:22:13.656Z,11.40
2022-11-28T09:23:13.667Z,11.80
2022-11-28T09:24:14.087Z,10.00
2022-11-28T09:25:13.647Z,12.20
2022-11-28T09:26:13.607Z,13.30
2022-11-28T09:27:13.647Z,11.40
2022-11-28T09:28:13.796Z,11.90
2022-11-28T09:29:13.818Z,10.30
2022-11-28T09:30:14.202Z,11.50
2022-11-28T09:31:13.671Z,12.10
2022-11-28T09:32:13.554Z,10.40
2022-11-28T09:33:13.556Z,11.30
2022-11-28T09:34:13.527Z,11.00
2022-11-28T09:35:13.544Z,12.10
2022-11-28T09:36:13.495Z,9.70
2022-11-28T09:37:13.515Z,12.30
2022-11-28T09:38:13.477Z,10.30
2022-11-28T09:39:13.487Z,9.30
2022-11-28T09:40:13.999Z,10.40
2022-11-28T09:41:13.525Z,12.10
2022-11-28T09:42:13.435Z,12.40
2022-11-28T09:43:13.445Z,11.50
2022-11-28T09:44:13.412Z,11.20
2022-11-28T09:45:13.429Z,10.90
2022-11-28T09:46:13.933Z,11.20
2022-11-28T09:47:13.400Z,13.10
2022-11-28T09:48:13.374Z,11.20
2022-11-28T09:49:13.833Z,10.20
2022-11-28T09:50:13.820Z,10.90
2022-11-28T09:51:13.365Z,11.40
2022-11-28T09:52:13.432Z,10.70
2022-11-28T09:53:13.334Z,12.00
2022-11-28T09:54:13.304Z,11.40
2022-11-28T09:55:13.348Z,10.30
2022-11-28T09:56:13.275Z,11.40
2022-11-28T09:57:13.312Z,12.00
2022-11-28T09:58:13.285Z,11.40
2022-11-28T09:59:13.304Z,10.30
2022-11-28T10:00:13.234Z,11.40
2022-11-28T10:01:13.303Z,13.50
2022-11-28T10:02:13.225Z,9.90
2022-11-28T10:03:13.272Z,10.90
2022-11-28T10:04:13.322Z,11.10
2022-11-28T10:05:13.245Z,10.10
2022-11-28T10:06:13.193Z,10.70
2022-11-28T10:07:13.266Z,10.20
2022-11-28T10:08:13.154Z,9.70
2022-11-28T10:09:13.172Z,10.70
2022-11-28T10:10:13.153Z,11.90
2022-11-28T10:11:13.136Z,10.70
2022-11-28T10:12:13.104Z,10.60
2022-11-28T10:13:13.111Z,11.90
2022-11-28T10:14:13.074Z,9.70
2022-11-28T10:15:13.083Z,11.20
2022-11-28T10:16:13.098Z,10.90
2022-11-28T10:17:13.108Z,10.40
2022-11-28T10:18:13.043Z,10.60
2022-11-28T10:19:25.723Z,11.60
2022-11-28T10:20:14.005Z,9.50
2022-11-28T10:21:13.073Z,9.70
2022-11-28T10:22:12.992Z,10.10
2022-11-28T10:23:12.992Z,12.50
2022-11-28T10:24:13.003Z,11.40
2022-11-28T10:25:13.002Z,10.50
2022-11-28T10:26:12.940Z,11.20
2022-11-28T10:27:12.955Z,10.30
2022-11-28T10:28:12.932Z,11.10
2022-11-28T10:29:12.943Z,11.50
2022-11-28T10:30:12.984Z,11.50
2022-11-28T10:31:13.028Z,10.60
2022-11-28T10:32:12.874Z,10.40
2022-11-28T10:33:12.881Z,11.30
2022-11-28T10:34:12.841Z,12.70
2022-11-28T10:35:12.919Z,10.70
2022-11-28T10:36:12.842Z,12.10
2022-11-28T10:37:12.886Z,12.40
2022-11-28T10:38:12.811Z,11.80
2022-11-28T10:39:12.820Z,12.30
2022-11-28T10:40:12.788Z,12.70
2022-11-28T10:41:12.791Z,11.40
2022-11-28T10:42:12.760Z,11.00
2022-11-28T10:43:12.770Z,10.20
2022-11-28T10:44:17.048Z,11.50
2022-11-28T10:45:13.761Z,10.00
2022-11-28T10:46:12.740Z,12.20
2022-11-28T10:47:12.721Z,11.80
2022-11-28T10:48:38.447Z,10.90
2022-11-28T10:49:13.703Z,11.60
2022-11-28T10:50:12.691Z,10.40
2022-11-28T10:51:12.701Z,10.60
2022-11-28T10:52:12.722Z,11.20
2022-11-28T10:53:12.641Z,11.70
2022-11-28T10:54:12.682Z,14.00
2022-11-28T10:55:12.652Z,10.80
2022-11-28T10:56:12.661Z,10.60
2022-11-28T10:57:12.608Z,12.30
2022-11-28T10:58:12.598Z,11.60
2022-11-28T10:59:12.569Z,12.50
2022-11-28T11:00:12.599Z,11.60
2022-11-28T11:01:12.637Z,13.20
2022-11-28T11:02:12.549Z,13.30
2022-11-28T11:03:12.538Z,12.40
2022-11-28T11:04:12.566Z,12.80
2022-11-28T11:05:12.498Z,13.00
2022-11-28T11:06:12.530Z,14.20
2022-11-28T11:07:17.674Z,15.40
2022-11-28T11:08:13.561Z,13.80
2022-11-28T11:09:12.459Z,12.50
2022-11-28T11:10:12.461Z,12.00
2022-11-28T11:11:12.418Z,14.10
2022-11-28T11:12:12.431Z,12.10
2022-11-28T11:13:12.430Z,11.70
2022-11-28T11:14:12.410Z,14.20
2022-11-28T11:15:12.369Z,16.40
2022-11-28T11:16:12.424Z,13.10
2022-11-28T11:17:12.408Z,16.10
2022-11-28T11:18:12.374Z,16.20
2022-11-28T11:19:12.331Z,11.90
2022-11-28T11:20:12.416Z,13.50
2022-11-28T11:21:12.339Z,13.60
2022-11-28T11:22:12.321Z,15.00
2022-11-28T11:23:12.289Z,12.40
2022-11-28T11:24:12.307Z,11.60
2022-11-28T11:25:12.269Z,12.50
2022-11-28T11:26:12.275Z,15.80
2022-11-28T11:27:12.238Z,14.70
2022-11-28T11:28:12.287Z,13.90
2022-11-28T11:29:12.222Z,14.10
2022-11-28T11:30:12.558Z,13.10
2022-11-28T11:31:12.262Z,12.60
2022-11-28T11:32:12.210Z,12.90
2022-11-28T11:33:12.178Z,13.90
2022-11-28T11:34:12.213Z,14.30
2022-11-28T11:35:12.146Z,16.00
2022-11-28T11:36:12.171Z,15.60
2022-11-28T11:37:12.117Z,13.80
2022-11-28T11:38:12.136Z,15.80
2022-11-28T11:39:12.157Z,14.70
2022-11-28T11:40:12.156Z,14.40
2022-11-28T11:41:12.118Z,15.60
2022-11-28T11:42:12.097Z,15.40
2022-11-28T11:43:12.057Z,15.70
2022-11-28T11:44:12.100Z,16.70
2022-11-28T11:45:12.220Z,14.70
2022-11-28T11:46:12.171Z,15.70
2022-11-28T11:47:12.027Z,18.40
2022-11-28T11:48:12.017Z,17.00
2022-11-28T11:49:11.996Z,16.10
2022-11-28T11:50:12.043Z,16.30
2022-11-28T11:51:11.987Z,18.00
2022-11-28T11:52:12.006Z,16.20
2022-11-28T11:53:11.954Z,19.10
2022-11-28T11:54:11.957Z,14.80
2022-11-28T11:55:11.945Z,17.80
2022-11-28T11:56:11.965Z,16.80
2022-11-28T11:57:31.972Z,17.50
2022-11-28T11:58:12.912Z,15.50
2022-11-28T11:59:11.887Z,15.50
2022-11-28T12:00:11.895Z,18.40
2022-11-28T12:01:11.883Z,17.00
2022-11-28T12:02:11.910Z,19.60
2022-11-28T12:03:11.930Z,17.30
2022-11-28T12:04:37.107Z,17.40
2022-11-28T12:05:12.806Z,19.90
2022-11-28T12:06:14.628Z,18.20
2022-11-28T12:07:11.814Z,15.50
2022-11-28T12:08:11.840Z,17.40
2022-11-28T12:09:11.773Z,14.60
2022-11-28T12:10:11.776Z,14.50
2022-11-28T12:11:11.739Z,15.50
2022-11-28T12:12:11.785Z,13.40
2022-11-28T12:13:11.725Z,15.40
2022-11-28T12:14:11.768Z,18.30
2022-11-28T12:15:11.716Z,14.80
2022-11-28T12:16:11.760Z,13.60
2022-11-28T12:18:12.700Z,16.50
2022-11-28T12:19:11.650Z,15.60
2022-11-28T12:20:11.779Z,18.10
2022-11-28T12:21:11.647Z,14.80
2022-11-28T12:22:11.635Z,19.40
2022-11-28T12:23:17.030Z,14.10
2022-11-28T12:24:12.615Z,17.00
2022-11-28T12:25:11.582Z,15.40
2022-11-28T12:26:11.593Z,15.40
2022-11-28T12:27:11.574Z,15.80
2022-11-28T12:28:11.576Z,14.80
2022-11-28T12:29:11.544Z,16.90
2022-11-28T12:30:11.664Z,16.00
2022-11-28T12:31:11.549Z,15.40
2022-11-28T12:32:11.524Z,17.30
2022-11-28T12:33:11.532Z,16.50
2022-11-28T12:34:11.571Z,17.40
2022-11-28T12:35:11.473Z,14.70
2022-11-28T12:36:11.482Z,14.90
2022-11-28T12:37:11.453Z,16.40
2022-11-28T12:38:12.191Z,16.80
2022-11-28T12:39:11.432Z,16.40
2022-11-28T12:40:11.473Z,17.60
2022-11-28T12:41:11.413Z,17.10
2022-11-28T12:42:11.414Z,15.50
2022-11-28T12:43:11.396Z,17.00
2022-11-28T12:44:11.397Z,19.60
2022-11-28T12:45:11.382Z,18.20
2022-11-28T12:46:11.410Z,16.00
2022-11-28T12:47:11.366Z,18.60
2022-11-28T12:48:11.392Z,17.90
2022-11-28T12:49:11.313Z,18.70
2022-11-28T12:50:11.330Z,20.60
2022-11-28T12:51:11.297Z,21.10
2022-11-28T12:52:11.401Z,20.60
2022-11-28T12:53:11.291Z,17.90
2022-11-28T12:54:11.308Z,20.90
2022-11-28T12:55:11.332Z,20.40
2022-11-28T12:56:11.364Z,18.30